Smyrna, Delaware
Current Conditions -  °F | °C
As of 4:31 AM on Tuesday 21 Oct 2014 (Local Time) from KDOV Reporting Station
Light Rain Light Rain  
Wind Chill: 55°   Ceiling: Unl
Heat Index: 55°   Visibility: 8mi
Dew Point: 50°   Wind: 6mph
Humidity: 82%   Direction: 150°SSE
Pressure: 29.86"   Gusts: NA
Location:  39.3°N, 75.61°W
Report Text: KDOV 210831Z AUTO 15005KT 8SM R19/5500FT -RA SCT080 13/10 A2986 RMK AO2
Loading
Personal Weather Stations






























Interactive Weather Map
Tropical Storm Tracking
New forecast layout! Learn more

10-Day Weather Forecast

Advertisements
Track Severe Weather on mobile